Evercreech, United Kingdom
Current Conditions -  °F | °C
As of 6:50 PM on Tuesday 21 Oct 2014 (Local Time) from EGDY Reporting Station
Few Clouds Few Clouds  
Wind Chill: 52°   Ceiling: Unl
Heat Index: 52°   Visibility: 6mi
Dew Point: 37°   Wind: 25mph
Humidity: 58%   Direction: 290°WNW
Pressure: 30.06"   Gusts: NA
Location:  51.15°N, 2.51°W
Report Text: EGDY 211750Z 29022KT 9999 FEW012 11/03 Q1018 BLU TEMPO 8000 -SHRA SCT025 BLU
Loading
Personal Weather Stations






























Interactive Weather Map
Tropical Storm Tracking
New forecast layout! Learn more

10-Day Weather Forecast

Advertisements
Track Severe Weather on mobile